createdAt,value
2018-05-12T00:00:42.099Z,966.88
2018-05-12T00:01:42.085Z,966.89
2018-05-12T00:02:42.009Z,966.86
2018-05-12T00:03:41.962Z,966.90
2018-05-12T00:04:41.914Z,966.90
2018-05-12T00:05:41.924Z,966.91
2018-05-12T00:06:41.848Z,966.90
2018-05-12T00:07:41.811Z,966.92
2018-05-12T00:08:41.724Z,966.90
2018-05-12T00:09:41.686Z,966.91
2018-05-12T00:10:41.631Z,966.92
2018-05-12T00:11:41.584Z,966.88
2018-05-12T00:12:41.573Z,966.91
2018-05-12T00:13:41.493Z,966.94
2018-05-12T00:14:41.484Z,966.95
2018-05-12T00:15:41.397Z,966.95
2018-05-12T00:16:41.402Z,966.91
2018-05-12T00:17:41.302Z,966.96
2018-05-12T00:18:41.269Z,966.91
2018-05-12T00:19:41.209Z,966.93
2018-05-12T00:20:41.161Z,966.92
2018-05-12T00:21:41.160Z,966.91
2018-05-12T00:22:41.067Z,966.94
2018-05-12T00:23:41.025Z,966.91
2018-05-12T00:24:40.974Z,966.90
2018-05-12T00:25:40.931Z,966.91
2018-05-12T00:26:40.912Z,966.91
2018-05-12T00:27:40.849Z,966.86
2018-05-12T00:28:40.797Z,966.89
2018-05-12T00:29:40.740Z,966.89
2018-05-12T00:30:40.736Z,966.86
2018-05-12T00:31:40.646Z,966.89
2018-05-12T00:32:40.646Z,966.88
2018-05-12T00:33:40.554Z,966.85
2018-05-12T00:34:40.518Z,966.88
2018-05-12T00:35:40.460Z,966.86
2018-05-12T00:36:40.413Z,966.86
2018-05-12T00:37:40.397Z,966.83
2018-05-12T00:38:40.317Z,966.86
2018-05-12T00:39:40.280Z,966.84
2018-05-12T00:40:40.225Z,966.84
2018-05-12T00:41:40.190Z,966.84
2018-05-12T00:42:40.178Z,966.83
2018-05-12T00:43:40.099Z,966.82
2018-05-12T00:44:40.038Z,966.85
2018-05-12T00:45:39.993Z,966.84
2018-05-12T00:46:39.943Z,966.80
2018-05-12T00:47:39.936Z,966.79
2018-05-12T00:48:39.851Z,966.79
2018-05-12T00:49:39.805Z,966.76
2018-05-12T00:50:39.755Z,966.77
2018-05-12T00:51:39.712Z,966.79
2018-05-12T00:52:39.695Z,966.80
2018-05-12T00:53:39.620Z,966.77
2018-05-12T00:54:39.567Z,966.78
2018-05-12T00:55:39.521Z,966.78
2018-05-12T00:56:39.509Z,966.78
2018-05-12T00:57:39.457Z,966.83
2018-05-12T00:58:39.410Z,966.83
2018-05-12T00:59:39.371Z,966.80
2018-05-12T01:00:39.293Z,966.81
2018-05-12T01:01:39.240Z,966.79
2018-05-12T01:02:39.200Z,966.83
2018-05-12T01:03:39.180Z,966.77
2018-05-12T01:04:39.097Z,966.78
2018-05-12T01:05:39.050Z,966.79
2018-05-12T01:06:39.001Z,966.77
2018-05-12T01:07:38.987Z,966.77
2018-05-12T01:08:38.910Z,966.77
2018-05-12T01:09:38.894Z,966.73
2018-05-12T01:10:38.820Z,966.72
2018-05-12T01:11:38.764Z,966.71
2018-05-12T01:12:38.750Z,966.70
2018-05-12T01:13:38.743Z,966.69
2018-05-12T01:14:38.644Z,966.70
2018-05-12T01:15:38.581Z,966.66
2018-05-12T01:16:38.532Z,966.64
2018-05-12T01:17:38.519Z,966.66
2018-05-12T01:18:38.483Z,966.62
2018-05-12T01:19:38.393Z,966.64
2018-05-12T01:20:38.339Z,966.66
2018-05-12T01:21:38.297Z,966.65
2018-05-12T01:22:38.243Z,966.65
2018-05-12T01:23:38.248Z,966.65
2018-05-12T01:24:38.152Z,966.67
2018-05-12T01:25:38.102Z,966.65
2018-05-12T01:26:38.055Z,966.68
2018-05-12T01:27:38.011Z,966.64
2018-05-12T01:28:37.995Z,966.64
2018-05-12T01:29:37.918Z,966.64
2018-05-12T01:30:37.863Z,966.61
2018-05-12T01:31:37.824Z,966.62
2018-05-12T01:32:37.804Z,966.63
2018-05-12T01:33:37.725Z,966.64
2018-05-12T01:34:37.675Z,966.63
2018-05-12T01:35:37.629Z,966.62
2018-05-12T01:36:37.586Z,966.66
2018-05-12T01:37:37.566Z,966.62
2018-05-12T01:38:37.492Z,966.59
2018-05-12T01:39:37.436Z,966.63
2018-05-12T01:40:37.387Z,966.59
2018-05-12T01:41:37.340Z,966.61
2018-05-12T01:42:37.328Z,966.64
2018-05-12T01:43:37.247Z,966.62
2018-05-12T01:44:37.214Z,966.61
2018-05-12T01:45:37.159Z,966.60
2018-05-12T01:46:37.150Z,966.61
2018-05-12T01:47:37.054Z,966.62
2018-05-12T01:48:37.018Z,966.65
2018-05-12T01:49:36.964Z,966.62
2018-05-12T01:50:36.913Z,966.63
2018-05-12T01:51:36.898Z,966.65
2018-05-12T01:52:36.816Z,966.63
2018-05-12T01:53:36.777Z,966.63
2018-05-12T01:54:36.724Z,966.61
2018-05-12T01:55:36.675Z,966.57
2018-05-12T01:56:36.658Z,966.58
2018-05-12T01:57:36.583Z,966.61
2018-05-12T01:58:36.531Z,966.61
2018-05-12T01:59:36.481Z,966.58
2018-05-12T02:00:36.442Z,966.57
2018-05-12T02:01:36.427Z,966.58
2018-05-12T02:02:36.345Z,966.63
2018-05-12T02:03:36.301Z,966.57
2018-05-12T02:04:36.246Z,966.59
2018-05-12T02:05:36.201Z,966.56
2018-05-12T02:06:36.181Z,966.59
2018-05-12T02:07:36.100Z,966.55
2018-05-12T02:08:36.054Z,966.60
2018-05-12T02:09:36.009Z,966.61
2018-05-12T02:10:35.957Z,966.64
2018-05-12T02:11:35.943Z,966.64
2018-05-12T02:12:35.895Z,966.64
2018-05-12T02:13:35.813Z,966.63
2018-05-12T02:14:35.763Z,966.67
2018-05-12T02:15:35.716Z,966.68
2018-05-12T02:16:35.671Z,966.67
2018-05-12T02:17:35.664Z,966.70
2018-05-12T02:18:35.580Z,966.67
2018-05-12T02:19:35.525Z,966.69
2018-05-12T02:20:35.489Z,966.66
2018-05-12T02:21:35.430Z,966.67
2018-05-12T02:22:35.419Z,966.68
2018-05-12T02:23:35.335Z,966.70
2018-05-12T02:24:35.317Z,966.70
2018-05-12T02:25:35.240Z,966.71
2018-05-12T02:26:35.187Z,966.72
2018-05-12T02:27:35.147Z,966.71
2018-05-12T02:28:35.130Z,966.76
2018-05-12T02:29:35.045Z,966.74
2018-05-12T02:30:34.997Z,966.74
2018-05-12T02:31:34.954Z,966.77
2018-05-12T02:32:34.900Z,966.76
2018-05-12T02:33:34.886Z,966.76
2018-05-12T02:34:34.806Z,966.74
2018-05-12T02:35:34.759Z,966.79
2018-05-12T02:36:34.709Z,966.79
2018-05-12T02:37:34.661Z,966.74
2018-05-12T02:38:34.646Z,966.75
2018-05-12T02:39:34.563Z,966.74
2018-05-12T02:40:34.515Z,966.77
2018-05-12T02:41:34.499Z,966.78
2018-05-12T02:42:34.418Z,966.80
2018-05-12T02:43:34.378Z,966.81
2018-05-12T02:44:34.330Z,966.82
2018-05-12T02:45:34.314Z,966.80
2018-05-12T02:46:34.232Z,966.83
2018-05-12T02:47:34.223Z,966.77
2018-05-12T02:48:34.138Z,966.82
2018-05-12T02:49:34.082Z,966.82
2018-05-12T02:50:34.064Z,966.81
2018-05-12T02:51:33.988Z,966.81
2018-05-12T02:52:33.934Z,966.85
2018-05-12T02:53:33.919Z,966.85
2018-05-12T02:54:33.839Z,966.84
2018-05-12T02:55:33.797Z,966.81
2018-05-12T02:56:33.741Z,966.82
2018-05-12T02:57:33.727Z,966.83
2018-05-12T02:58:33.645Z,966.82
2018-05-12T02:59:33.594Z,966.78
2018-05-12T03:00:33.551Z,966.80
2018-05-12T03:01:33.534Z,966.78
2018-05-12T03:02:33.481Z,966.78
2018-05-12T03:03:33.406Z,966.78
2018-05-12T03:04:33.398Z,966.77
2018-05-12T03:05:33.314Z,966.75
2018-05-12T03:06:33.291Z,966.78
2018-05-12T03:07:33.246Z,966.73
2018-05-12T03:08:33.160Z,966.74
2018-05-12T03:09:33.114Z,966.75
2018-05-12T03:10:33.063Z,966.79
2018-05-12T03:11:33.021Z,966.79
2018-05-12T03:12:33.001Z,966.77
2018-05-12T03:13:32.921Z,966.75
2018-05-12T03:14:32.907Z,966.73
2018-05-12T03:15:32.823Z,966.74
2018-05-12T03:16:32.803Z,966.75
2018-05-12T03:17:32.757Z,966.73
2018-05-12T03:18:32.677Z,966.73
2018-05-12T03:19:32.633Z,966.79
2018-05-12T03:20:32.578Z,966.78
2018-05-12T03:21:32.531Z,966.78
2018-05-12T03:22:32.521Z,966.78
2018-05-12T03:23:32.446Z,966.79
2018-05-12T03:24:32.425Z,966.83
2018-05-12T03:25:32.340Z,966.82
2018-05-12T03:26:32.288Z,966.78
2018-05-12T03:27:32.237Z,966.81
2018-05-12T03:28:32.193Z,966.78
2018-05-12T03:29:32.191Z,966.77
2018-05-12T03:30:32.093Z,966.79
2018-05-12T03:31:32.044Z,966.77
2018-05-12T03:32:32.004Z,966.74
2018-05-12T03:33:31.948Z,966.74
2018-05-12T03:34:31.946Z,966.72
2018-05-12T03:35:31.856Z,966.72
2018-05-12T03:36:31.809Z,966.72
2018-05-12T03:37:31.752Z,966.73
2018-05-12T03:38:31.704Z,966.73
2018-05-12T03:39:31.704Z,966.77
2018-05-12T03:40:31.609Z,966.77
2018-05-12T03:41:31.556Z,966.75
2018-05-12T03:42:31.517Z,966.73
2018-05-12T03:43:31.461Z,966.76
2018-05-12T03:44:31.446Z,966.76
2018-05-12T03:45:31.403Z,966.78
2018-05-12T03:46:31.322Z,966.76
2018-05-12T03:47:31.267Z,966.74
2018-05-12T03:48:31.223Z,966.79
2018-05-12T03:49:31.167Z,966.80
2018-05-12T03:50:31.170Z,966.80
2018-05-12T03:51:31.072Z,966.81
2018-05-12T03:52:31.027Z,966.79
2018-05-12T03:53:30.976Z,966.77
2018-05-12T03:54:30.924Z,966.74
2018-05-12T03:55:30.917Z,966.74
2018-05-12T03:56:30.829Z,966.72
2018-05-12T03:57:30.778Z,966.72
2018-05-12T03:58:30.736Z,966.74
2018-05-12T03:59:30.681Z,966.69
2018-05-12T04:00:30.664Z,966.73
2018-05-12T04:01:30.591Z,966.70
2018-05-12T04:02:30.536Z,966.71
2018-05-12T04:03:30.531Z,966.72
2018-05-12T04:04:30.443Z,966.72
2018-05-12T04:05:30.393Z,966.73
2018-05-12T04:06:30.340Z,966.76
2018-05-12T04:07:30.322Z,966.74
2018-05-12T04:08:30.248Z,966.72
2018-05-12T04:09:30.197Z,966.69
2018-05-12T04:10:30.188Z,966.68
2018-05-12T04:11:30.100Z,966.73
2018-05-12T04:12:30.046Z,966.73
2018-05-12T04:13:30.001Z,966.71
2018-05-12T04:14:29.951Z,966.70
2018-05-12T04:15:29.933Z,966.72
2018-05-12T04:16:29.854Z,966.70
2018-05-12T04:17:29.806Z,966.69
2018-05-12T04:18:29.761Z,966.70
2018-05-12T04:19:29.713Z,966.69
2018-05-12T04:20:29.698Z,966.66
2018-05-12T04:21:29.607Z,966.69
2018-05-12T04:22:29.560Z,966.67
2018-05-12T04:23:29.510Z,966.65
2018-05-12T04:24:29.468Z,966.68
2018-05-12T04:25:29.450Z,966.67
2018-05-12T04:26:29.365Z,966.69
2018-05-12T04:27:29.318Z,966.68
2018-05-12T04:28:29.312Z,966.65
2018-05-12T04:29:29.220Z,966.68
2018-05-12T04:30:29.171Z,966.68
2018-05-12T04:31:29.137Z,966.64
2018-05-12T04:32:29.081Z,966.67
2018-05-12T04:33:29.072Z,966.66
2018-05-12T04:34:28.976Z,966.66
2018-05-12T04:35:28.929Z,966.67
2018-05-12T04:36:28.881Z,966.63
2018-05-12T04:37:28.835Z,966.62
2018-05-12T04:38:28.817Z,966.65
2018-05-12T04:39:28.734Z,966.64
2018-05-12T04:40:28.698Z,966.65
2018-05-12T04:41:28.638Z,966.68
2018-05-12T04:42:28.618Z,966.66
2018-05-12T04:43:28.543Z,966.66
2018-05-12T04:44:28.492Z,966.70
2018-05-12T04:45:28.472Z,966.70
2018-05-12T04:46:28.404Z,966.68
2018-05-12T04:47:28.349Z,966.72
2018-05-12T04:48:28.298Z,966.71
2018-05-12T04:49:28.247Z,966.73
2018-05-12T04:50:28.229Z,966.71
2018-05-12T04:51:28.149Z,966.73
2018-05-12T04:52:28.110Z,966.75
2018-05-12T04:53:28.055Z,966.71
2018-05-12T04:54:28.004Z,966.69
2018-05-12T04:55:27.993Z,966.65
2018-05-12T04:56:27.937Z,966.68
2018-05-12T04:57:27.862Z,966.66
2018-05-12T04:58:27.814Z,966.67
2018-05-12T04:59:27.758Z,966.70
2018-05-12T05:00:27.750Z,966.67
2018-05-12T05:01:27.665Z,966.64
2018-05-12T05:02:27.647Z,966.69
2018-05-12T05:03:27.578Z,966.70
2018-05-12T05:04:27.519Z,966.65
2018-05-12T05:05:27.480Z,966.68
2018-05-12T05:06:27.423Z,966.70
2018-05-12T05:07:27.404Z,966.70
2018-05-12T05:08:27.325Z,966.71
2018-05-12T05:09:27.309Z,966.71
2018-05-12T05:10:27.227Z,966.74
2018-05-12T05:11:27.187Z,966.74
2018-05-12T05:12:27.130Z,966.75
2018-05-12T05:13:27.082Z,966.71
2018-05-12T05:14:27.081Z,966.71
2018-05-12T05:15:26.987Z,966.68
2018-05-12T05:16:26.941Z,966.68
2018-05-12T05:17:26.890Z,966.68
2018-05-12T05:18:26.848Z,966.68
2018-05-12T05:19:26.830Z,966.70
2018-05-12T05:20:26.829Z,966.72
2018-05-12T05:21:26.700Z,966.71
2018-05-12T05:22:26.647Z,966.70
2018-05-12T05:23:26.604Z,966.71
2018-05-12T05:24:26.601Z,966.70
2018-05-12T05:25:26.503Z,966.71
2018-05-12T05:26:26.466Z,966.67
2018-05-12T05:27:26.406Z,966.65
2018-05-12T05:28:26.359Z,966.60
2018-05-12T05:29:26.355Z,966.61
2018-05-12T05:30:26.265Z,966.67
2018-05-12T05:31:26.214Z,966.64
2018-05-12T05:32:26.168Z,966.65
2018-05-12T05:33:26.130Z,966.67
2018-05-12T05:34:26.109Z,966.67
2018-05-12T05:35:26.021Z,966.66
2018-05-12T05:36:25.974Z,966.67
2018-05-12T05:37:25.925Z,966.69
2018-05-12T05:38:25.877Z,966.68
2018-05-12T05:39:25.866Z,966.65
2018-05-12T05:40:25.781Z,966.63
2018-05-12T05:41:25.737Z,966.65
2018-05-12T05:42:25.717Z,966.64
2018-05-12T05:43:25.636Z,966.67
2018-05-12T05:44:25.606Z,966.66
2018-05-12T05:45:25.544Z,966.70
2018-05-12T05:46:25.495Z,966.71
2018-05-12T05:47:25.478Z,966.72
2018-05-12T05:48:25.409Z,966.72
2018-05-12T05:49:25.349Z,966.73
2018-05-12T05:50:25.307Z,966.74
2018-05-12T05:51:25.300Z,966.72
2018-05-12T05:52:25.206Z,966.73
2018-05-12T05:53:25.192Z,966.71
2018-05-12T05:54:25.120Z,966.71
2018-05-12T05:55:25.064Z,966.71
2018-05-12T05:56:25.018Z,966.74
2018-05-12T05:57:24.969Z,966.74
2018-05-12T05:58:24.980Z,966.73
2018-05-12T05:59:24.878Z,966.70
2018-05-12T06:00:24.828Z,966.71
2018-05-12T06:01:24.780Z,966.73
2018-05-12T06:02:24.728Z,966.72
2018-05-12T06:03:24.727Z,966.71
2018-05-12T06:04:24.634Z,966.66
2018-05-12T06:05:24.611Z,966.72
2018-05-12T06:06:24.550Z,966.73
2018-05-12T06:07:24.493Z,966.73
2018-05-12T06:08:24.501Z,966.76
2018-05-12T06:09:24.402Z,966.74
2018-05-12T06:10:24.353Z,966.72
2018-05-12T06:11:24.317Z,966.70
2018-05-12T06:12:24.286Z,966.72
2018-05-12T06:13:24.214Z,966.70
2018-05-12T06:14:24.161Z,966.72
2018-05-12T06:15:24.115Z,966.71
2018-05-12T06:16:24.108Z,966.74
2018-05-12T06:17:24.027Z,966.72
2018-05-12T06:18:23.979Z,966.74
2018-05-12T06:19:23.930Z,966.72
2018-05-12T06:20:23.882Z,966.74
2018-05-12T06:21:23.880Z,966.71
2018-05-12T06:22:23.790Z,966.71
2018-05-12T06:23:23.743Z,966.74
2018-05-12T06:24:23.699Z,966.74
2018-05-12T06:25:23.647Z,966.73
2018-05-12T06:26:23.641Z,966.72
2018-05-12T06:27:23.606Z,966.72
2018-05-12T06:28:23.501Z,966.74
2018-05-12T06:29:23.462Z,966.70
2018-05-12T06:30:23.419Z,966.69
2018-05-12T06:31:23.394Z,966.68
2018-05-12T06:32:23.316Z,966.75
2018-05-12T06:33:23.281Z,966.75
2018-05-12T06:34:23.225Z,966.74
2018-05-12T06:35:23.207Z,966.75
2018-05-12T06:36:23.133Z,966.75
2018-05-12T06:37:23.083Z,966.75
2018-05-12T06:38:23.041Z,966.75
2018-05-12T06:39:23.004Z,966.76
2018-05-12T06:40:23.045Z,966.78
2018-05-12T06:41:22.897Z,966.80
2018-05-12T06:42:22.848Z,966.77
2018-05-12T06:43:22.804Z,966.77
2018-05-12T06:44:22.754Z,966.77
2018-05-12T06:45:22.739Z,966.75
2018-05-12T06:46:22.663Z,966.77
2018-05-12T06:47:22.623Z,966.77
2018-05-12T06:48:22.569Z,966.77
2018-05-12T06:49:22.527Z,966.78
2018-05-12T06:50:22.511Z,966.78
2018-05-12T06:51:22.433Z,966.79
2018-05-12T06:52:22.385Z,966.82
2018-05-12T06:53:22.337Z,966.82
2018-05-12T06:54:22.373Z,966.83
2018-05-12T06:55:22.243Z,966.81
2018-05-12T06:56:22.209Z,966.81
2018-05-12T06:57:22.161Z,966.80
2018-05-12T06:58:22.115Z,966.79
2018-05-12T06:59:22.090Z,966.77
2018-05-12T07:00:22.022Z,966.79
2018-05-12T07:01:21.979Z,966.82
2018-05-12T07:02:21.952Z,966.84
2018-05-12T07:03:21.881Z,966.82
2018-05-12T07:04:21.828Z,966.85
2018-05-12T07:05:21.781Z,966.85
2018-05-12T07:06:21.768Z,966.88
2018-05-12T07:07:21.696Z,966.85
2018-05-12T07:08:21.644Z,966.86
2018-05-12T07:09:21.610Z,966.89
2018-05-12T07:10:21.583Z,966.86
2018-05-12T07:11:21.503Z,966.88
2018-05-12T07:12:21.549Z,966.86
2018-05-12T07:13:21.412Z,966.87
2018-05-12T07:14:21.497Z,966.86
2018-05-12T07:15:21.339Z,966.87
2018-05-12T07:16:21.274Z,966.90
2018-05-12T07:17:21.235Z,966.88
2018-05-12T07:18:21.184Z,966.90
2018-05-12T07:19:21.250Z,966.90
2018-05-12T07:20:21.094Z,966.89
2018-05-12T07:21:21.048Z,966.90
2018-05-12T07:22:21.008Z,966.93
2018-05-12T07:23:20.956Z,966.88
2018-05-12T07:24:20.942Z,966.91
2018-05-12T07:25:20.865Z,966.89
2018-05-12T07:26:20.821Z,966.90
2018-05-12T07:27:20.776Z,966.90
2018-05-12T07:28:20.760Z,966.90
2018-05-12T07:29:20.685Z,966.86
2018-05-12T07:30:20.644Z,966.82
2018-05-12T07:31:20.591Z,966.86
2018-05-12T07:32:20.546Z,966.85
2018-05-12T07:33:20.535Z,966.84
2018-05-12T07:34:20.492Z,966.86
2018-05-12T07:35:20.414Z,966.82
2018-05-12T07:36:20.366Z,966.84
2018-05-12T07:37:20.329Z,966.84
2018-05-12T07:38:20.276Z,966.84
2018-05-12T07:39:20.263Z,966.81
2018-05-12T07:40:20.187Z,966.83
2018-05-12T07:41:20.140Z,966.85
2018-05-12T07:42:20.099Z,966.84
2018-05-12T07:43:20.094Z,966.83
2018-05-12T07:44:20.010Z,966.84
2018-05-12T07:45:19.961Z,966.84
2018-05-12T07:46:19.915Z,966.83
2018-05-12T07:47:19.873Z,966.78
2018-05-12T07:48:19.859Z,966.84
2018-05-12T07:49:19.785Z,966.85
2018-05-12T07:50:19.739Z,966.85
2018-05-12T07:51:19.696Z,966.81
2018-05-12T07:52:19.650Z,966.78
2018-05-12T07:53:19.647Z,966.81
2018-05-12T07:54:19.562Z,966.80
2018-05-12T07:55:19.517Z,966.83
2018-05-12T07:56:19.475Z,966.80
2018-05-12T07:57:19.433Z,966.74
2018-05-12T07:58:19.415Z,966.77
2018-05-12T07:59:19.378Z,966.76
2018-05-12T08:00:19.295Z,966.78
2018-05-12T08:01:19.281Z,966.78
2018-05-12T08:02:19.216Z,966.76
2018-05-12T08:03:19.166Z,966.73
2018-05-12T08:04:19.159Z,966.74
2018-05-12T08:05:19.080Z,966.74
2018-05-12T08:06:19.055Z,966.75
2018-05-12T08:07:18.993Z,966.76
2018-05-12T08:08:18.950Z,966.74
2018-05-12T08:09:18.963Z,966.73
2018-05-12T08:10:18.860Z,966.76
2018-05-12T08:11:18.816Z,966.75
2018-05-12T08:12:18.778Z,966.75
2018-05-12T08:13:18.730Z,966.75
2018-05-12T08:14:18.734Z,966.78
2018-05-12T08:15:18.643Z,966.72
2018-05-12T08:16:18.655Z,966.76
2018-05-12T08:17:18.560Z,966.74
2018-05-12T08:18:18.524Z,966.72
2018-05-12T08:19:18.481Z,966.69
2018-05-12T08:20:18.433Z,966.70
2018-05-12T08:21:18.434Z,966.70
2018-05-12T08:22:18.347Z,966.68
2018-05-12T08:23:18.310Z,966.69
2018-05-12T08:24:18.263Z,966.72
2018-05-12T08:25:18.224Z,966.70
2018-05-12T08:26:18.205Z,966.74
2018-05-12T08:27:18.138Z,966.71
2018-05-12T08:28:18.096Z,966.71
2018-05-12T08:29:18.048Z,966.71
2018-05-12T08:30:18.005Z,966.69
2018-05-12T08:31:17.998Z,966.67
2018-05-12T08:32:17.921Z,966.66
2018-05-12T08:33:17.883Z,966.67
2018-05-12T08:34:17.843Z,966.68
2018-05-12T08:35:17.804Z,966.67
2018-05-12T08:36:17.791Z,966.67
2018-05-12T08:37:17.718Z,966.64
2018-05-12T08:38:17.705Z,966.66
2018-05-12T08:39:17.634Z,966.62
2018-05-12T08:40:17.597Z,966.64
2018-05-12T08:41:17.549Z,966.65
2018-05-12T08:42:17.544Z,966.63
2018-05-12T08:43:17.471Z,966.67
2018-05-12T08:44:17.427Z,966.63
2018-05-12T08:45:17.391Z,966.63
2018-05-12T08:46:17.477Z,966.61
2018-05-12T08:47:17.304Z,966.61
2018-05-12T08:48:17.274Z,966.59
2018-05-12T08:49:17.223Z,966.57
2018-05-12T08:50:17.187Z,966.64
2018-05-12T08:51:17.171Z,966.64
2018-05-12T08:52:17.104Z,966.65
2018-05-12T08:53:17.067Z,966.65
2018-05-12T08:54:17.050Z,966.63
2018-05-12T08:55:17.017Z,966.64
2018-05-12T08:56:16.945Z,966.65
2018-05-12T08:57:16.896Z,966.63
2018-05-12T08:58:16.857Z,966.64
2018-05-12T08:59:16.857Z,966.64
2018-05-12T09:00:16.779Z,966.63
2018-05-12T09:01:16.744Z,966.62
2018-05-12T09:02:16.696Z,966.59
2018-05-12T09:03:16.660Z,966.59
2018-05-12T09:04:16.659Z,966.59
2018-05-12T09:05:16.613Z,966.60
2018-05-12T09:06:16.542Z,966.57
2018-05-12T09:07:16.568Z,966.57
2018-05-12T09:08:16.459Z,966.55
2018-05-12T09:09:16.422Z,966.56
2018-05-12T09:10:16.413Z,966.57
2018-05-12T09:11:16.341Z,966.54
2018-05-12T09:12:16.307Z,966.51
2018-05-12T09:13:16.263Z,966.53
2018-05-12T09:14:16.263Z,966.53
2018-05-12T09:15:16.184Z,966.50
2018-05-12T09:16:16.143Z,966.52
2018-05-12T09:17:16.105Z,966.50
2018-05-12T09:18:16.067Z,966.53
2018-05-12T09:19:16.163Z,966.50
2018-05-12T09:20:15.987Z,966.51
2018-05-12T09:21:15.956Z,966.55
2018-05-12T09:22:15.913Z,966.56
2018-05-12T09:23:15.884Z,966.55
2018-05-12T09:24:15.868Z,966.56
2018-05-12T09:25:15.804Z,966.53
2018-05-12T09:26:15.798Z,966.55
2018-05-12T09:27:15.719Z,966.54
2018-05-12T09:28:15.687Z,966.54
2018-05-12T09:29:15.645Z,966.56
2018-05-12T09:30:15.604Z,966.56
2018-05-12T09:31:15.602Z,966.56
2018-05-12T09:32:15.532Z,966.57
2018-05-12T09:33:15.493Z,966.58
2018-05-12T09:34:15.496Z,966.60
2018-05-12T09:35:15.416Z,966.57
2018-05-12T09:36:15.380Z,966.56
2018-05-12T09:37:15.355Z,966.58
2018-05-12T09:38:15.305Z,966.62
2018-05-12T09:39:15.299Z,966.58
2018-05-12T09:40:15.229Z,966.51
2018-05-12T09:41:15.187Z,966.47
2018-05-12T09:42:15.257Z,966.55
2018-05-12T09:43:15.147Z,966.53
2018-05-12T09:44:15.106Z,966.52
2018-05-12T09:45:15.041Z,966.53
2018-05-12T09:46:15.070Z,966.50
2018-05-12T09:47:14.971Z,966.51
2018-05-12T09:48:14.926Z,966.48
2018-05-12T09:49:14.918Z,966.46
2018-05-12T09:50:14.846Z,966.49
2018-05-12T09:51:14.832Z,966.46
2018-05-12T09:52:14.776Z,966.43
2018-05-12T09:53:14.734Z,966.42
2018-05-12T09:54:14.735Z,966.40
2018-05-12T09:55:14.664Z,966.40
2018-05-12T09:56:14.618Z,966.38
2018-05-12T09:57:14.582Z,966.40
2018-05-12T09:58:14.543Z,966.33
2018-05-12T09:59:14.543Z,966.35
2018-05-12T10:00:14.490Z,966.33
2018-05-12T10:01:14.425Z,966.38
2018-05-12T10:02:14.389Z,966.37
2018-05-12T10:03:14.357Z,966.43
2018-05-12T10:04:14.361Z,966.41
2018-05-12T10:05:14.277Z,966.41
2018-05-12T10:06:14.239Z,966.43
2018-05-12T10:07:14.200Z,966.39
2018-05-12T10:08:14.164Z,966.37
2018-05-12T10:09:14.157Z,966.32
2018-05-12T10:10:14.092Z,966.31
2018-05-12T10:11:14.055Z,966.24
2018-05-12T10:12:14.010Z,966.27
2018-05-12T10:13:13.970Z,966.30
2018-05-12T10:14:13.967Z,966.30
2018-05-12T10:15:13.894Z,966.28
2018-05-12T10:16:13.888Z,966.30
2018-05-12T10:17:13.819Z,966.25
2018-05-12T10:18:13.781Z,966.32
2018-05-12T10:19:13.740Z,966.31
2018-05-12T10:20:13.756Z,966.33
2018-05-12T10:21:13.708Z,966.32
2018-05-12T10:22:13.632Z,966.27
2018-05-12T10:23:13.594Z,966.27
2018-05-12T10:24:13.551Z,966.22
2018-05-12T10:25:13.510Z,966.23
2018-05-12T10:26:13.545Z,966.23
2018-05-12T10:27:13.444Z,966.22
2018-05-12T10:28:13.402Z,966.14
2018-05-12T10:29:13.355Z,966.08
2018-05-12T10:30:13.327Z,966.12
2018-05-12T10:31:13.322Z,966.10
2018-05-12T10:32:13.245Z,966.19
2018-05-12T10:33:13.206Z,966.09
2018-05-12T10:34:13.165Z,966.15
2018-05-12T10:35:13.128Z,966.06
2018-05-12T10:36:13.121Z,966.06
2018-05-12T10:37:13.081Z,966.02
2018-05-12T10:38:13.011Z,966.08
2018-05-12T10:39:12.981Z,966.07
2018-05-12T10:40:12.936Z,965.99
2018-05-12T10:41:12.900Z,966.04
2018-05-12T10:42:12.899Z,966.03
2018-05-12T10:43:12.835Z,966.11
2018-05-12T10:44:12.784Z,966.12
2018-05-12T10:45:12.744Z,966.07
2018-05-12T10:46:12.709Z,966.16
2018-05-12T10:47:12.716Z,966.09
2018-05-12T10:48:12.633Z,966.04
2018-05-12T10:49:12.592Z,966.02
2018-05-12T10:50:12.558Z,966.02
2018-05-12T10:51:12.521Z,966.03
2018-05-12T10:52:12.524Z,966.08
2018-05-12T10:53:12.441Z,966.05
2018-05-12T10:54:12.401Z,966.13
2018-05-12T10:55:12.367Z,966.04
2018-05-12T10:56:12.323Z,966.09
2018-05-12T10:57:12.318Z,966.02
2018-05-12T10:58:12.282Z,966.07
2018-05-12T10:59:12.217Z,966.04
2018-05-12T11:00:12.182Z,966.04
2018-05-12T11:01:12.135Z,965.97
2018-05-12T11:02:12.113Z,965.93
2018-05-12T11:03:12.098Z,965.92
2018-05-12T11:04:12.021Z,965.95
2018-05-12T11:05:11.992Z,965.92
2018-05-12T11:06:11.953Z,965.86
2018-05-12T11:07:11.910Z,965.80
2018-05-12T11:08:11.918Z,965.80
2018-05-12T11:09:11.833Z,965.88
2018-05-12T11:10:11.796Z,965.89
2018-05-12T11:11:11.759Z,965.92
2018-05-12T11:12:11.723Z,965.84
2018-05-12T11:13:11.721Z,965.76
2018-05-12T11:14:11.646Z,965.81
2018-05-12T11:15:11.607Z,965.82
2018-05-12T11:16:11.632Z,965.81
2018-05-12T11:17:11.529Z,965.79
2018-05-12T11:18:11.527Z,965.80
2018-05-12T11:19:11.506Z,965.77
2018-05-12T11:20:11.453Z,965.69
2018-05-12T11:21:11.381Z,965.67
2018-05-12T11:22:11.348Z,965.66
2018-05-12T11:23:11.302Z,965.62
2018-05-12T11:24:11.306Z,965.72
2018-05-12T11:25:11.227Z,965.76
2018-05-12T11:26:11.186Z,965.72
2018-05-12T11:27:11.148Z,965.73
2018-05-12T11:28:11.131Z,965.66
2018-05-12T11:29:11.108Z,965.64
2018-05-12T11:30:11.068Z,965.65
2018-05-12T11:31:11.041Z,965.70
2018-05-12T11:32:11.043Z,965.71
2018-05-12T11:33:10.930Z,965.71
2018-05-12T11:34:10.889Z,965.71
2018-05-12T11:35:10.892Z,965.63
2018-05-12T11:36:10.820Z,965.60
2018-05-12T11:37:10.780Z,965.63
2018-05-12T11:38:10.799Z,965.57
2018-05-12T11:39:10.709Z,965.57
2018-05-12T11:40:10.667Z,965.57
2018-05-12T11:41:10.660Z,965.56
2018-05-12T11:42:10.599Z,965.56
2018-05-12T11:43:10.556Z,965.59
2018-05-12T11:44:10.518Z,965.56
2018-05-12T11:45:10.481Z,965.52
2018-05-12T11:46:10.477Z,965.50
2018-05-12T11:47:10.407Z,965.44
2018-05-12T11:48:10.368Z,965.43
2018-05-12T11:49:10.335Z,965.54
2018-05-12T11:50:10.344Z,965.42
2018-05-12T11:51:10.255Z,965.37
2018-05-12T11:52:10.222Z,965.47
2018-05-12T11:53:10.184Z,965.47
2018-05-12T11:54:10.207Z,965.47
2018-05-12T11:55:10.146Z,965.47
2018-05-12T11:56:10.072Z,965.45
2018-05-12T11:57:10.040Z,965.41
2018-05-12T11:58:10.043Z,965.40
2018-05-12T11:59:09.962Z,965.33
2018-05-12T12:00:09.925Z,965.41
2018-05-12T12:01:09.890Z,965.38
2018-05-12T12:02:09.851Z,965.35
2018-05-12T12:03:09.865Z,965.34
2018-05-12T12:04:09.778Z,965.32
2018-05-12T12:05:09.757Z,965.32
2018-05-12T12:06:09.703Z,965.29
2018-05-12T12:07:09.668Z,965.32
2018-05-12T12:08:09.662Z,965.34
2018-05-12T12:09:09.599Z,965.29
2018-05-12T12:10:09.562Z,965.32
2018-05-12T12:11:09.523Z,965.29
2018-05-12T12:12:09.526Z,965.24
2018-05-12T12:13:09.448Z,965.23
2018-05-12T12:14:09.410Z,965.28
2018-05-12T12:15:09.385Z,965.27
2018-05-12T12:16:09.340Z,965.25
2018-05-12T12:17:09.336Z,965.29
2018-05-12T12:18:09.277Z,965.32
2018-05-12T12:19:09.233Z,965.34
2018-05-12T12:20:09.193Z,965.22
2018-05-12T12:21:09.158Z,965.19
2018-05-12T12:22:09.155Z,965.20
2018-05-12T12:23:09.086Z,965.21
2018-05-12T12:24:09.051Z,965.18
2018-05-12T12:25:09.011Z,965.13
2018-05-12T12:26:08.976Z,965.10
2018-05-12T12:27:08.977Z,965.15
2018-05-12T12:28:08.899Z,965.09